createdAt,value
2022-08-28T00:01:05.096Z,4.30
2022-08-28T00:06:01.791Z,4.88
2022-08-28T00:08:30.621Z,4.63
2022-08-28T00:28:23.614Z,4.90
2022-08-28T00:30:55.645Z,4.68
2022-08-28T00:33:35.239Z,4.68
2022-08-28T00:36:05.824Z,5.10
2022-08-28T00:38:33.188Z,4.43
2022-08-28T00:41:03.659Z,4.57
2022-08-28T00:43:46.181Z,5.07
2022-08-28T00:46:24.487Z,5.03
2022-08-28T00:48:51.999Z,5.07
2022-08-28T00:51:39.293Z,4.72
2022-08-28T00:54:08.043Z,4.70
2022-08-28T00:56:37.663Z,4.90
2022-08-28T00:59:11.101Z,4.60
2022-08-28T01:01:39.338Z,4.95
2022-08-28T01:04:06.776Z,4.45
2022-08-28T01:06:36.106Z,4.47
2022-08-28T01:09:06.601Z,4.78
2022-08-28T01:11:33.965Z,5.15
2022-08-28T01:14:03.215Z,4.80
2022-08-28T01:16:32.324Z,4.53
2022-08-28T01:19:01.774Z,5.40
2022-08-28T01:21:36.932Z,4.93
2022-08-28T01:24:12.094Z,4.60
2022-08-28T01:26:39.185Z,5.00
2022-08-28T01:29:08.556Z,4.90
2022-08-28T01:31:36.956Z,4.90
2022-08-28T01:34:05.740Z,5.13
2022-08-28T01:36:34.193Z,5.00
2022-08-28T01:39:20.875Z,4.93
2022-08-28T01:41:51.986Z,4.60
2022-08-28T01:44:24.702Z,4.93
2022-08-28T03:23:27.444Z,3.90
2022-08-28T03:33:42.566Z,4.10
2022-08-28T04:48:37.901Z,4.43
2022-08-28T04:51:11.036Z,3.83
2022-08-28T04:53:39.195Z,3.83
2022-08-28T04:56:11.007Z,4.35
2022-08-28T04:58:39.108Z,3.95
2022-08-28T05:01:18.915Z,4.50
2022-08-28T05:03:52.705Z,3.65
2022-08-28T05:06:21.739Z,3.55
2022-08-28T05:08:48.940Z,4.28
2022-08-28T05:11:33.301Z,4.40
2022-08-28T05:14:05.553Z,4.40
2022-08-28T05:19:03.395Z,4.47
2022-08-28T05:21:30.836Z,4.00
2022-08-28T05:23:59.654Z,3.63
2022-08-28T05:26:29.702Z,3.67
2022-08-28T05:28:58.474Z,4.43
2022-08-28T05:31:27.981Z,3.40
2022-08-28T05:33:55.462Z,3.50
2022-08-28T05:36:26.182Z,3.70
2022-08-28T05:39:00.394Z,3.28
2022-08-28T05:41:32.852Z,3.83
2022-08-28T05:44:03.861Z,3.72
2022-08-28T05:46:31.873Z,4.00
2022-08-28T05:49:00.483Z,3.38
2022-08-28T05:51:28.849Z,3.50
2022-08-28T05:53:57.891Z,3.90
2022-08-28T05:56:32.868Z,3.83
2022-08-28T05:59:01.887Z,3.65
2022-08-28T06:01:35.731Z,4.05
2022-08-28T06:04:18.937Z,3.63
2022-08-28T06:06:46.945Z,3.58
2022-08-28T06:09:29.662Z,3.30
2022-08-28T06:12:00.341Z,3.72
2022-08-28T06:14:29.970Z,4.55
2022-08-28T06:16:57.871Z,3.67
2022-08-28T06:19:27.111Z,3.63
2022-08-28T06:22:00.469Z,3.28
2022-08-28T06:24:33.381Z,4.10
2022-08-28T06:27:00.582Z,3.40
2022-08-28T06:29:28.820Z,3.88
2022-08-28T06:32:00.427Z,2.85
2022-08-28T06:34:28.940Z,3.58
2022-08-28T06:36:56.141Z,3.42
2022-08-28T06:39:23.576Z,3.75
2022-08-28T06:41:50.714Z,3.83
2022-08-28T06:44:20.573Z,3.40
2022-08-28T06:46:54.130Z,3.42
2022-08-28T06:49:22.008Z,3.97
2022-08-28T06:51:49.633Z,3.60
2022-08-28T06:54:22.267Z,3.40
2022-08-28T06:56:51.770Z,3.35
2022-08-28T06:59:19.018Z,3.92
2022-08-28T07:01:46.102Z,3.65
2022-08-28T07:04:14.750Z,3.90
2022-08-28T07:06:47.046Z,3.45
2022-08-28T07:09:15.460Z,3.70
2022-08-28T07:26:36.412Z,3.60
2022-08-28T07:29:11.072Z,3.20
2022-08-28T07:44:35.091Z,3.67
2022-08-28T07:47:05.912Z,3.55
2022-08-28T07:49:34.471Z,3.22
2022-08-28T07:52:02.640Z,3.47
2022-08-28T07:54:30.325Z,3.40
2022-08-28T07:56:57.357Z,3.33
2022-08-28T07:59:25.055Z,3.30
2022-08-28T08:01:53.428Z,3.28
2022-08-28T08:04:21.999Z,3.10
2022-08-28T08:06:51.372Z,3.30
2022-08-28T08:09:22.298Z,2.88
2022-08-28T08:11:49.725Z,3.00
2022-08-28T08:14:17.590Z,3.95
2022-08-28T08:16:46.443Z,2.85
2022-08-28T08:19:15.417Z,2.58
2022-08-28T08:21:44.999Z,2.92
2022-08-28T08:24:19.427Z,3.47
2022-08-28T08:26:58.952Z,3.00
2022-08-28T08:29:31.877Z,3.47
2022-08-28T08:34:36.758Z,3.05
2022-08-28T08:37:05.845Z,2.97
2022-08-28T08:39:35.424Z,3.03
2022-08-28T11:06:14.470Z,3.33
2022-08-28T11:08:41.599Z,3.00
2022-08-28T11:11:16.099Z,3.10
2022-08-28T11:13:57.620Z,2.85
2022-08-28T11:19:52.435Z,3.25
2022-08-28T11:22:22.636Z,2.95
2022-08-28T11:25:16.938Z,3.30
2022-08-28T11:28:22.493Z,2.90
2022-08-28T11:31:10.211Z,2.55
2022-08-28T11:33:47.939Z,2.97
2022-08-28T11:36:21.316Z,3.40
2022-08-28T11:38:57.971Z,2.50
2022-08-28T11:41:34.555Z,3.15
2022-08-28T11:44:13.380Z,2.90
2022-08-28T11:46:52.667Z,2.75
2022-08-28T11:49:35.215Z,3.22
2022-08-28T11:52:22.828Z,3.15
2022-08-28T11:55:07.350Z,2.97
2022-08-28T12:01:09.795Z,3.20
2022-08-28T12:03:55.546Z,2.70
2022-08-28T12:07:12.685Z,3.10
2022-08-28T12:54:16.270Z,2.88
2022-08-28T12:56:43.629Z,2.58
2022-08-28T12:59:40.458Z,3.28
2022-08-28T13:02:25.819Z,3.00
2022-08-28T13:05:01.725Z,3.17
2022-08-28T13:07:55.444Z,3.05
2022-08-28T13:10:30.084Z,3.28
2022-08-28T13:13:06.518Z,2.80
2022-08-28T13:15:49.456Z,3.15
2022-08-28T13:18:39.492Z,3.17
2022-08-28T17:21:40.330Z,2.95
2022-08-28T17:24:09.208Z,3.03
2022-08-28T17:26:36.297Z,3.15
2022-08-28T17:29:04.165Z,2.85
2022-08-28T17:31:31.877Z,2.90
2022-08-28T17:33:59.100Z,2.97
2022-08-28T17:36:33.120Z,2.80
2022-08-28T17:39:04.325Z,2.95
2022-08-28T17:41:33.580Z,2.97
2022-08-28T17:44:05.054Z,2.90
2022-08-28T17:49:07.153Z,3.20
2022-08-28T17:56:42.513Z,3.05
2022-08-28T17:59:11.514Z,3.22
2022-08-28T18:01:39.614Z,2.88
2022-08-28T18:04:06.934Z,3.30
2022-08-28T18:06:34.357Z,3.03
2022-08-28T18:09:03.732Z,2.80
2022-08-28T18:26:21.972Z,3.20
2022-08-28T18:31:16.971Z,3.58
2022-08-28T18:33:44.118Z,3.20
2022-08-28T18:36:13.642Z,3.00
2022-08-28T18:38:42.125Z,2.97
2022-08-28T18:41:10.117Z,3.10
2022-08-28T18:43:37.390Z,3.43
2022-08-28T18:46:05.914Z,3.55
2022-08-28T18:48:33.777Z,2.90
2022-08-28T18:51:01.558Z,3.00
2022-08-28T18:53:30.131Z,3.10
2022-08-28T18:55:57.134Z,3.45
2022-08-28T19:15:38.622Z,3.30
2022-08-28T19:18:05.992Z,3.47
2022-08-28T19:20:34.099Z,3.05
2022-08-28T19:23:01.701Z,3.33
2022-08-28T19:25:30.772Z,3.72
2022-08-28T19:28:03.698Z,3.03
2022-08-28T19:33:03.593Z,3.10
2022-08-28T19:35:31.431Z,3.40
2022-08-28T19:37:58.920Z,3.30
2022-08-28T19:40:27.456Z,2.95
2022-08-28T19:42:54.631Z,2.90
2022-08-28T19:45:22.257Z,3.00
2022-08-28T19:47:49.578Z,3.20
2022-08-28T19:50:16.890Z,2.80
2022-08-28T19:52:46.172Z,3.03
2022-08-28T19:55:23.660Z,2.90
2022-08-28T19:57:50.734Z,3.03
2022-08-28T20:00:21.708Z,3.22
2022-08-28T20:02:51.689Z,3.05
2022-08-28T20:05:20.372Z,3.17
2022-08-28T20:07:48.241Z,3.25
2022-08-28T20:10:17.024Z,3.30
2022-08-28T20:12:48.622Z,3.25
2022-08-28T20:15:19.206Z,3.22
2022-08-28T20:17:49.672Z,3.17
2022-08-28T20:20:23.054Z,3.10
2022-08-28T20:22:54.112Z,3.20
2022-08-28T20:25:22.021Z,2.92
2022-08-28T20:27:49.224Z,2.83
2022-08-28T20:30:16.694Z,2.88
2022-08-28T20:32:43.880Z,3.25
2022-08-28T20:37:45.512Z,2.78
2022-08-28T21:07:21.425Z,3.38
2022-08-28T21:30:06.661Z,3.25
2022-08-28T21:32:34.278Z,3.22
2022-08-28T21:44:58.699Z,3.22
2022-08-28T21:47:25.903Z,3.50
2022-08-28T21:49:56.185Z,3.60
2022-08-28T21:52:27.426Z,2.92
2022-08-28T21:55:09.417Z,3.15
2022-08-28T21:57:36.567Z,3.60
2022-08-28T22:00:12.131Z,3.30
2022-08-28T22:02:39.394Z,3.00
2022-08-28T22:05:06.770Z,3.20
2022-08-28T22:49:39.709Z,3.40
2022-08-28T22:52:09.865Z,3.00
2022-08-28T22:54:37.112Z,3.17
2022-08-28T22:57:05.624Z,3.30
2022-08-28T22:59:34.562Z,3.50
2022-08-28T23:02:03.645Z,3.70
2022-08-28T23:53:49.731Z,5.53
2022-08-28T23:56:17.043Z,5.45
2022-08-28T23:58:45.314Z,4.68
